Brookfield, Illinois
Current Conditions -  °F | °C
As of 6:53 AM on Sunday 23 Nov 2014 (Local Time) from KMDW Reporting Station
Overcast Overcast  
Wind Chill: 51°   Ceiling: 4100
Heat Index: 51°   Visibility: 10mi
Dew Point: 42°   Wind: 12mph
Humidity: 71%   Direction: 180°S
Pressure: 29.76"   Gusts: NA
Location:  41.82°N, 87.84°W
Report Text: KMDW 231253Z 18010KT 10SM FEW015 BKN041 OVC060 11/06 A2976 RMK AO2 SLP078 T01060056
Loading
Personal Weather Stations






























Interactive Weather Map New forecast layout! Learn more

10-Day Weather Forecast

Advertisements
Track Severe Weather on mobile